Time;durP1;ratioP1;P1;durP2;ratioP2;P2;SDS_P1;SDS_P2;PMS_P1;PMS_P2;Temp;Humidity;BMP_temperature;BMP_pressure;BME280_temperature;BME280_humidity;BME280_pressure;Samples;Min_cycle;Max_cycle;Signal;HPM_P1;HPM_P2
2022/09/19 00:02:25;;;;;;;0.60;0.60;;;;;;;13.48;65.79;96724.19;4909643;29;20269;-54
2022/09/19 00:04:51;;;;;;;1.40;0.67;;;;;;;13.44;67.85;96720.16;4911050;29;20757;-56
2022/09/19 00:07:18;;;;;;;2.27;0.70;;;;;;;13.41;67.31;96720.50;4912108;29;20227;-55
2022/09/19 00:09:46;;;;;;;1.23;0.73;;;;;;;13.40;66.01;96718.81;4916359;29;20276;-54
2022/09/19 00:12:13;;;;;;;0.90;0.70;;;;;;;13.43;66.27;96729.13;4919858;29;20218;-53
2022/09/19 00:14:39;;;;;;;0.50;0.50;;;;;;;13.41;69.16;96728.47;4922250;29;20637;-55
2022/09/19 00:17:08;;;;;;;1.10;1.00;;;;;;;13.37;69.84;96725.28;4916974;29;20256;-55
2022/09/19 00:19:35;;;;;;;1.60;0.80;;;;;;;13.39;69.37;96728.59;4918607;29;20217;-55
2022/09/19 00:22:02;;;;;;;2.17;0.67;;;;;;;13.41;66.76;96725.81;4911867;29;20243;-55
2022/09/19 00:24:48;;;;;;;1.37;0.60;;;;;;;13.40;66.90;96718.81;4912347;29;20263;-55
2022/09/19 00:27:19;;;;;;;1.27;1.10;;;;;;;13.36;68.36;96723.63;4918323;29;20211;-55
2022/09/19 00:29:46;;;;;;;0.90;0.53;;;;;;;13.44;66.76;96725.47;4917430;29;20664;-56
2022/09/19 00:32:14;;;;;;;1.50;0.97;;;;;;;13.41;66.29;96720.50;4917512;29;20213;-55
2022/09/19 00:34:42;;;;;;;2.97;1.10;;;;;;;13.42;67.41;96724.81;4909794;29;20229;-54
2022/09/19 00:37:09;;;;;;;0.77;0.73;;;;;;;13.41;68.56;96720.50;4908140;29;20204;-56
2022/09/19 00:39:36;;;;;;;1.40;1.13;;;;;;;13.37;67.79;96713.81;4907127;29;20258;-55
2022/09/19 00:42:02;;;;;;;2.00;0.93;;;;;;;13.40;67.76;96718.81;4906838;29;20298;-55
2022/09/19 00:44:57;;;;;;;0.83;0.60;;;;;;;13.37;66.97;96719.97;4906632;29;20705;-55
2022/09/19 00:47:29;;;;;;;3.63;0.90;;;;;;;13.51;65.62;96720.38;4907629;29;20302;-54
2022/09/19 00:49:58;;;;;;;1.17;1.03;;;;;;;13.65;64.04;96717.09;4908746;29;20218;-55
2022/09/19 00:52:31;;;;;;;1.10;1.00;;;;;;;13.55;66.19;96724.38;4907223;29;20300;-60
2022/09/19 00:54:58;;;;;;;1.03;0.80;;;;;;;13.64;63.57;96720.78;4907736;29;20636;-55
2022/09/19 00:57:35;;;;;;;1.33;0.80;;;;;;;13.59;64.09;96723.06;4907459;29;20633;-55
2022/09/19 01:00:06;;;;;;;2.67;0.77;;;;;;;13.57;65.23;96720.56;4907196;29;20196;-56
2022/09/19 01:02:33;;;;;;;0.70;0.70;;;;;;;13.65;64.49;96720.59;4907459;29;20219;-56
2022/09/19 01:05:01;;;;;;;0.90;0.70;;;;;;;13.71;63.40;96719.94;4907321;29;20255;-56
2022/09/19 01:07:35;;;;;;;2.50;1.07;;;;;;;13.67;64.06;96725.78;4907225;29;20219;-54
2022/09/19 01:10:08;;;;;;;1.23;1.00;;;;;;;13.70;63.98;96726.28;4907293;29;20203;-55
2022/09/19 01:12:45;;;;;;;0.83;0.70;;;;;;;13.69;65.27;96729.09;4908306;29;20579;-56
2022/09/19 01:15:24;;;;;;;0.97;0.97;;;;;;;13.65;64.71;96722.41;4906986;29;20587;-55
2022/09/19 01:17:53;;;;;;;1.80;1.03;;;;;;;13.63;64.81;96729.72;4906250;29;20204;-57
2022/09/19 01:24:26;;;;;;;1.67;0.90;;;;;;;13.77;64.04;96732.63;4830921;29;20348;-55
2022/09/19 01:27:20;;;;;;;1.73;1.00;;;;;;;13.82;63.71;96740.09;4826608;29;20243;-56
2022/09/19 01:29:49;;;;;;;1.10;1.03;;;;;;;13.75;64.56;96731.09;4899692;29;20254;-56
2022/09/19 01:32:22;;;;;;;1.40;0.60;;;;;;;13.73;63.95;96744.56;4907035;29;20303;-56
2022/09/19 01:34:51;;;;;;;1.37;0.93;;;;;;;13.71;64.18;96740.41;4906417;29;20670;-56
2022/09/19 01:37:21;;;;;;;2.33;0.97;;;;;;;13.63;64.93;96743.03;4907465;29;20251;-55
2022/09/19 01:39:51;;;;;;;1.13;0.80;;;;;;;13.64;64.88;96745.50;4906886;29;20241;-57
2022/09/19 01:42:20;;;;;;;5.73;1.17;;;;;;;13.60;65.19;96746.84;4907623;29;20718;-55
2022/09/19 01:44:49;;;;;;;2.00;1.07;;;;;;;13.53;65.86;96744.97;4905968;29;20252;-54
2022/09/19 01:47:21;;;;;;;1.27;0.77;;;;;;;13.56;64.91;96745.47;4906577;29;20234;-55
2022/09/19 01:49:51;;;;;;;1.43;1.10;;;;;;;13.53;65.87;96745.81;4906135;29;20224;-55
2022/09/19 01:52:31;;;;;;;2.53;0.73;;;;;;;13.54;66.15;96744.78;4910310;29;20236;-55
2022/09/19 01:55:02;;;;;;;2.43;0.70;;;;;;;13.51;65.75;96742.44;4915440;29;20286;-55
2022/09/19 01:57:36;;;;;;;1.93;0.63;;;;;;;13.46;66.00;96736.81;4911344;29;20218;-56
2022/09/19 02:00:11;;;;;;;1.33;0.90;;;;;;;13.50;66.27;96735.47;4912563;29;20232;-55
2022/09/19 02:02:43;;;;;;;0.87;0.80;;;;;;;13.39;66.59;96736.56;4915076;29;20230;-56
2022/09/19 02:05:13;;;;;;;4.13;0.70;;;;;;;13.43;66.52;96729.97;4894796;29;20657;-55
2022/09/19 02:07:45;;;;;;;1.00;0.90;;;;;;;13.40;66.43;96729.44;4910694;29;20645;-55
2022/09/19 02:10:18;;;;;;;1.80;0.80;;;;;;;13.38;66.23;96734.09;4908322;29;20232;-54
2022/09/19 02:12:45;;;;;;;1.17;0.70;;;;;;;13.37;66.02;96727.09;4908552;29;20295;-54
2022/09/19 02:15:18;;;;;;;2.00;1.10;;;;;;;13.27;66.68;96734.38;4910286;29;20208;-54
2022/09/19 02:17:51;;;;;;;1.20;0.90;;;;;;;13.32;66.73;96737.38;4909886;29;20218;-53
2022/09/19 02:20:23;;;;;;;1.37;0.87;;;;;;;13.15;67.64;96735.59;4908236;29;20209;-54
2022/09/19 02:22:52;;;;;;;1.23;0.93;;;;;;;13.17;67.61;96741.59;4907773;29;20930;-55
2022/09/19 02:25:22;;;;;;;1.53;0.73;;;;;;;13.16;67.24;96743.44;4910086;29;20232;-54
2022/09/19 02:27:51;;;;;;;1.43;0.90;;;;;;;13.09;67.66;96746.81;4909280;29;20248;-55
2022/09/19 02:30:20;;;;;;;1.27;1.00;;;;;;;13.05;67.62;96740.16;4908589;29;20256;-55
2022/09/19 02:32:48;;;;;;;2.67;1.23;;;;;;;13.00;68.31;96745.13;4907257;29;20216;-54
2022/09/19 02:35:16;;;;;;;0.90;0.83;;;;;;;12.96;68.50;96747.25;4907863;29;20736;-55
2022/09/19 02:37:48;;;;;;;1.37;0.70;;;;;;;12.83;68.44;96752.09;4907871;29;20255;-55
2022/09/19 02:40:21;;;;;;;2.03;0.97;;;;;;;12.89;68.36;96752.31;4908302;29;20208;-56
2022/09/19 02:42:52;;;;;;;1.53;0.83;;;;;;;12.89;68.41;96754.16;4870191;29;1135783;-56
2022/09/19 02:45:26;;;;;;;3.37;1.10;;;;;;;13.01;68.14;96760.03;4910315;29;20247;-55
2022/09/19 02:47:58;;;;;;;1.37;0.97;;;;;;;12.89;68.81;96757.63;4920175;29;20257;-55
2022/09/19 02:50:30;;;;;;;1.37;1.00;;;;;;;12.86;69.47;96762.41;4925467;29;20228;-55
2022/09/19 02:52:58;;;;;;;1.97;0.83;;;;;;;12.86;70.79;96759.75;4923477;29;20206;-55
2022/09/19 02:55:28;;;;;;;2.97;0.90;;;;;;;12.92;68.97;96754.69;4910674;29;20238;-55
2022/09/19 02:57:58;;;;;;;2.47;0.80;;;;;;;13.04;68.56;96749.13;4909288;29;20196;-55
2022/09/19 03:00:26;;;;;;;1.10;0.83;;;;;;;13.07;67.52;96760.28;4908976;29;20228;-54
2022/09/19 03:02:56;;;;;;;1.67;0.87;;;;;;;12.88;68.85;96755.16;4908275;29;20205;-55
2022/09/19 03:05:26;;;;;;;1.23;0.87;;;;;;;12.79;69.83;96764.00;4908318;29;20235;-55
2022/09/19 03:07:58;;;;;;;1.03;0.70;;;;;;;12.75;71.98;96760.84;4908672;29;20212;-56
2022/09/19 03:10:29;;;;;;;0.90;0.80;;;;;;;12.71;71.21;96758.66;4908570;29;20240;-55
2022/09/19 03:12:58;;;;;;;0.63;0.63;;;;;;;12.72;71.83;96761.16;4908387;29;20223;-56
2022/09/19 03:15:33;;;;;;;1.30;0.80;;;;;;;12.67;71.49;96758.13;4908048;29;20574;-56
2022/09/19 03:18:01;;;;;;;0.70;0.70;;;;;;;12.66;71.67;96756.47;4908093;29;20579;-55
2022/09/19 03:20:28;;;;;;;0.70;0.70;;;;;;;12.63;71.76;96759.41;4907529;29;20223;-54
2022/09/19 03:22:55;;;;;;;1.27;1.00;;;;;;;12.65;71.04;96757.44;4907742;29;20645;-55
2022/09/19 03:25:21;;;;;;;0.70;0.67;;;;;;;12.59;72.55;96766.00;4907738;29;20318;-56
2022/09/19 03:27:49;;;;;;;1.60;0.80;;;;;;;12.61;71.64;96757.91;4907972;29;20220;-55
2022/09/19 03:30:15;;;;;;;1.27;0.80;;;;;;;12.78;69.82;96765.88;4907294;29;20208;-56
2022/09/19 03:32:43;;;;;;;0.70;0.70;;;;;;;12.79;69.22;96767.50;4907579;29;20212;-55
2022/09/19 03:35:11;;;;;;;1.63;0.87;;;;;;;12.65;70.96;96768.03;4907987;29;20212;-54
2022/09/19 03:37:37;;;;;;;3.23;0.87;;;;;;;12.68;70.30;96769.59;4908105;29;20313;-55
2022/09/19 03:40:05;;;;;;;1.13;1.00;;;;;;;12.52;71.94;96759.66;4908227;29;20339;-55
2022/09/19 03:42:35;;;;;;;3.67;1.03;;;;;;;12.42;73.01;96766.84;4907695;29;20209;-55
2022/09/19 03:45:02;;;;;;;1.57;0.80;;;;;;;12.40;74.13;96767.00;4907318;29;20714;-53
2022/09/19 03:47:28;;;;;;;3.30;1.13;;;;;;;12.39;74.92;96768.00;4907309;29;20324;-53
2022/09/19 03:49:57;;;;;;;1.93;0.90;;;;;;;12.39;73.56;96775.13;4907112;29;20216;-55
2022/09/19 03:52:26;;;;;;;1.27;0.90;;;;;;;12.37;74.35;96779.72;4907750;29;20279;-54
2022/09/19 03:54:53;;;;;;;1.90;0.60;;;;;;;12.35;76.95;96781.69;4907320;29;20660;-55
2022/09/19 03:57:20;;;;;;;1.47;0.80;;;;;;;12.36;74.68;96791.34;4906852;29;20395;-54
2022/09/19 03:59:46;;;;;;;1.63;0.73;;;;;;;12.38;73.55;96790.19;4906830;29;20700;-54
2022/09/19 04:02:13;;;;;;;0.53;0.53;;;;;;;12.38;76.10;96786.69;4907140;29;20212;-54
2022/09/19 04:04:40;;;;;;;0.87;0.63;;;;;;;12.42;75.08;96793.38;4907383;29;20522;-53
2022/09/19 04:07:08;;;;;;;2.27;1.00;;;;;;;12.38;74.96;96799.97;4907121;29;20276;-54
2022/09/19 04:09:34;;;;;;;2.00;1.03;;;;;;;12.40;73.66;96804.13;4907289;29;20575;-56
2022/09/19 04:12:03;;;;;;;1.70;0.70;;;;;;;12.32;76.68;96805.88;4906839;29;20224;-55
2022/09/19 04:14:30;;;;;;;4.10;1.13;;;;;;;12.28;77.94;96804.50;4907043;29;20209;-54
2022/09/19 04:16:57;;;;;;;0.80;0.80;;;;;;;12.26;77.59;96809.94;4906604;29;20644;-55
2022/09/19 04:19:26;;;;;;;1.30;0.70;;;;;;;12.29;76.84;96814.13;4909210;29;20209;-55
2022/09/19 04:21:52;;;;;;;1.67;1.20;;;;;;;12.34;76.92;96817.16;4910343;29;20278;-54
2022/09/19 04:24:20;;;;;;;1.70;0.90;;;;;;;12.33;77.68;96818.13;4907337;29;20655;-52
2022/09/19 04:26:49;;;;;;;0.90;0.70;;;;;;;12.38;76.15;96821.19;4915041;29;20232;-56
2022/09/19 04:29:19;;;;;;;0.93;0.83;;;;;;;12.39;77.44;96817.56;4923454;29;20209;-55
2022/09/19 04:31:45;;;;;;;2.87;1.00;;;;;;;12.30;80.05;96821.09;4923768;29;20212;-55
2022/09/19 04:34:14;;;;;;;0.70;0.70;;;;;;;12.24;80.36;96829.63;4912371;29;20215;-54
2022/09/19 04:36:41;;;;;;;5.23;1.20;;;;;;;12.59;78.91;96813.78;4906635;29;20578;-54
2022/09/19 04:39:08;;;;;;;0.80;0.80;;;;;;;12.52;77.27;96818.00;4906315;29;20209;-55
2022/09/19 04:41:38;;;;;;;0.97;0.83;;;;;;;12.56;76.00;96821.19;4906192;29;20700;-54
2022/09/19 04:44:06;;;;;;;1.17;0.80;;;;;;;12.63;75.47;96825.75;4906280;29;20258;-56
2022/09/19 04:46:33;;;;;;;1.00;0.90;;;;;;;12.74;77.40;96828.19;4906660;29;20640;-55
2022/09/19 04:49:00;;;;;;;0.63;0.63;;;;;;;12.87;74.61;96835.75;4906618;29;20283;-54
2022/09/19 04:51:30;;;;;;;1.43;0.90;;;;;;;12.90;73.89;96833.63;4906239;29;20215;-55
2022/09/19 04:53:57;;;;;;;1.80;0.90;;;;;;;12.87;72.87;96841.91;4906289;29;20208;-55
2022/09/19 04:56:26;;;;;;;0.83;0.83;;;;;;;12.63;74.23;96840.81;4906403;29;20210;-56
2022/09/19 04:58:54;;;;;;;1.83;1.00;;;;;;;12.55;76.58;96844.22;4906320;29;20212;-56
2022/09/19 05:01:21;;;;;;;3.23;1.23;;;;;;;12.48;78.00;96848.47;4905980;29;20219;-54
2022/09/19 05:03:48;;;;;;;1.67;0.90;;;;;;;12.36;79.20;96849.69;4906201;29;20201;-54
2022/09/19 05:06:15;;;;;;;1.10;0.90;;;;;;;12.34;79.72;96851.63;4905990;29;20233;-55
2022/09/19 05:08:41;;;;;;;2.17;0.97;;;;;;;12.30;80.05;96855.56;4906278;29;20231;-56
2022/09/19 05:11:09;;;;;;;1.57;0.90;;;;;;;12.24;78.92;96853.50;4906173;29;20212;-56
2022/09/19 05:13:38;;;;;;;3.13;1.27;;;;;;;12.24;78.40;96864.13;4906188;29;20208;-64
2022/09/19 05:16:06;;;;;;;1.80;1.70;;;;;;;12.10;81.17;96869.91;4905489;29;20205;-56
2022/09/19 05:18:37;;;;;;;1.53;1.00;;;;;;;12.05;80.90;96872.16;4905263;29;20211;-56
2022/09/19 05:21:06;;;;;;;1.60;0.90;;;;;;;12.06;83.61;96868.53;4905618;29;20208;-56
2022/09/19 05:23:33;;;;;;;1.00;0.87;;;;;;;12.07;80.00;96871.03;4905206;29;20242;-56
2022/09/19 05:26:03;;;;;;;1.00;0.90;;;;;;;12.08;81.00;96870.03;4906111;29;20236;-55
2022/09/19 05:28:30;;;;;;;1.90;1.10;;;;;;;12.11;80.46;96871.59;4906118;29;20651;-54
2022/09/19 05:30:57;;;;;;;2.10;1.10;;;;;;;12.03;82.38;96877.63;4906232;29;20218;-56
2022/09/19 05:33:26;;;;;;;1.23;1.10;;;;;;;12.06;82.27;96879.13;4906429;29;20212;-55
2022/09/19 05:35:53;;;;;;;3.27;0.90;;;;;;;12.08;79.97;96878.00;4905882;29;20242;-56
2022/09/19 05:38:20;;;;;;;1.47;1.30;;;;;;;12.06;79.99;96879.97;4906106;29;20226;-55
2022/09/19 05:40:46;;;;;;;2.70;1.20;;;;;;;12.12;78.23;96873.22;4905942;29;20208;-56
2022/09/19 05:43:13;;;;;;;5.47;1.37;;;;;;;12.11;78.04;96876.88;4905817;29;20240;-56
2022/09/19 05:45:39;;;;;;;2.17;1.10;;;;;;;12.08;79.42;96877.19;4906132;29;20214;-56
2022/09/19 05:48:07;;;;;;;2.30;2.10;;;;;;;12.01;80.39;96879.56;4905896;29;20228;-56
2022/09/19 05:50:35;;;;;;;3.40;2.23;;;;;;;12.02;80.57;96878.59;4905669;29;20211;-54
2022/09/19 05:55:46;;;;;;;1.33;0.80;;;;;;;12.11;77.22;96880.38;4905576;29;20231;-55
2022/09/19 05:58:15;;;;;;;1.07;0.93;;;;;;;12.22;76.41;96884.66;4906175;29;20209;-58
2022/09/19 06:00:41;;;;;;;1.07;1.00;;;;;;;12.23;76.28;96888.94;4906146;29;20211;-55
2022/09/19 06:03:10;;;;;;;3.43;1.07;;;;;;;12.22;76.26;96889.94;4905292;29;20660;-56
2022/09/19 06:05:43;;;;;;;2.13;1.03;;;;;;;12.23;75.55;96902.22;4906152;29;20346;-55
2022/09/19 06:08:09;;;;;;;1.40;0.83;;;;;;;12.20;75.96;96903.34;4905688;29;20223;-53
2022/09/19 06:10:38;;;;;;;2.43;1.00;;;;;;;12.14;76.32;96903.09;4905942;29;20227;-56
2022/09/19 06:13:05;;;;;;;2.10;0.90;;;;;;;12.08;78.81;96898.38;4905633;29;20299;-55
2022/09/19 06:15:32;;;;;;;2.13;0.90;;;;;;;12.08;79.30;96903.69;4905643;29;20232;-55
2022/09/19 06:17:59;;;;;;;1.13;1.03;;;;;;;12.12;78.34;96915.66;4905708;29;20200;-54
2022/09/19 06:20:27;;;;;;;0.70;0.63;;;;;;;12.07;78.82;96907.31;4905276;29;20291;-55
2022/09/19 06:23:00;;;;;;;3.10;1.23;;;;;;;12.04;79.75;96912.91;4905644;29;20244;-55
2022/09/19 06:25:28;;;;;;;1.63;0.70;;;;;;;12.06;79.52;96910.94;4906523;29;20593;-54
2022/09/19 06:27:55;;;;;;;0.70;0.63;;;;;;;12.05;80.05;96919.84;4905961;29;20237;-56
2022/09/19 06:30:22;;;;;;;1.63;0.90;;;;;;;12.01;79.66;96916.66;4889254;29;20223;-55
2022/09/19 06:32:49;;;;;;;2.17;1.37;;;;;;;12.07;81.62;96923.22;4905524;29;20208;-54
2022/09/19 06:35:16;;;;;;;1.80;0.93;;;;;;;12.06;80.51;96922.38;4905127;29;20209;-56
2022/09/19 06:37:42;;;;;;;1.60;1.00;;;;;;;12.09;81.71;96926.53;4905837;29;20302;-54
2022/09/19 06:40:11;;;;;;;1.73;0.80;;;;;;;12.15;81.71;96925.97;4908722;29;20260;-56
2022/09/19 06:42:38;;;;;;;1.20;1.20;;;;;;;12.23;82.00;96928.72;4908658;29;20653;-56
2022/09/19 06:45:06;;;;;;;1.20;1.10;;;;;;;12.27;82.62;96933.59;4908747;29;20310;-56
2022/09/19 06:47:33;;;;;;;1.30;1.20;;;;;;;12.34;79.53;96928.53;4908798;29;20239;-56
2022/09/19 06:50:00;;;;;;;1.60;1.00;;;;;;;12.37;79.57;96936.19;4908496;29;20223;-56
2022/09/19 06:52:27;;;;;;;1.70;1.13;;;;;;;12.36;80.75;96939.84;4908821;29;20200;-56
2022/09/19 06:54:53;;;;;;;1.50;0.60;;;;;;;12.34;81.27;96941.78;4909168;29;20263;-56
2022/09/19 06:57:22;;;;;;;1.87;0.83;;;;;;;12.33;80.69;96946.25;4909107;29;20778;-56
2022/09/19 06:59:48;;;;;;;1.17;0.77;;;;;;;12.38;79.92;96941.38;4908823;29;20251;-55
2022/09/19 07:02:15;;;;;;;1.23;1.13;;;;;;;12.46;79.76;96945.94;4908707;29;20705;-55
2022/09/19 07:04:42;;;;;;;1.50;1.20;;;;;;;12.39;79.44;96956.31;4908538;29;20292;-55
2022/09/19 07:07:08;;;;;;;5.23;1.27;;;;;;;12.40;79.73;96957.13;4909041;29;20228;-54
2022/09/19 07:09:35;;;;;;;1.80;1.40;;;;;;;12.42;81.72;96966.63;4908855;29;20321;-56
2022/09/19 07:12:02;;;;;;;1.13;1.07;;;;;;;12.46;79.91;96961.84;4908338;29;20205;-55
2022/09/19 07:14:30;;;;;;;3.03;1.30;;;;;;;12.44;79.35;96964.63;4908972;29;20614;-56
2022/09/19 07:16:57;;;;;;;1.37;1.13;;;;;;;12.51;81.68;96964.88;4908866;29;20260;-56
2022/09/19 07:19:24;;;;;;;1.60;1.03;;;;;;;12.64;80.50;96969.88;4910137;29;20685;-56
2022/09/19 07:21:52;;;;;;;3.17;1.57;;;;;;;12.76;80.37;96980.13;4910884;29;20236;-56
2022/09/19 07:24:19;;;;;;;1.37;1.00;;;;;;;12.77;80.44;96967.69;4911160;29;20218;-54
2022/09/19 07:26:46;;;;;;;2.43;1.33;;;;;;;12.70;80.07;96980.72;4910758;29;20223;-56
2022/09/19 07:29:12;;;;;;;1.73;1.30;;;;;;;12.67;78.97;96978.38;4911233;29;20662;-56
2022/09/19 07:31:40;;;;;;;3.50;1.47;;;;;;;12.58;78.64;96984.53;4909350;29;20239;-54
2022/09/19 07:34:07;;;;;;;2.83;1.17;;;;;;;12.68;79.63;96979.19;4908513;29;20244;-54
2022/09/19 07:36:34;;;;;;;2.77;1.50;;;;;;;12.74;81.21;96990.06;4908120;29;20266;-55
2022/09/19 07:39:01;;;;;;;2.93;1.30;;;;;;;12.73;78.97;96988.38;4908124;29;20272;-55
2022/09/19 07:41:27;;;;;;;3.33;1.40;;;;;;;12.92;78.13;96990.94;4909588;29;20236;-56
2022/09/19 07:43:54;;;;;;;1.97;1.40;;;;;;;13.13;79.06;96992.50;4910085;29;20236;-57
2022/09/19 07:46:21;;;;;;;2.17;1.27;;;;;;;13.20;77.34;96990.91;4912470;29;20232;-55
2022/09/19 07:48:49;;;;;;;2.70;1.20;;;;;;;13.12;76.48;96996.97;4912987;29;20292;-56
2022/09/19 07:51:16;;;;;;;2.27;1.10;;;;;;;13.22;76.52;97002.22;4916205;29;20212;-58
2022/09/19 07:53:43;;;;;;;1.57;1.00;;;;;;;13.25;74.38;96994.78;4918743;29;20252;-55
2022/09/19 07:56:11;;;;;;;2.07;1.13;;;;;;;13.36;74.04;97001.69;4917069;29;20204;-57
2022/09/19 07:58:38;;;;;;;1.97;0.90;;;;;;;13.51;75.52;97002.84;4919439;29;20284;-56
2022/09/19 08:01:05;;;;;;;1.30;1.13;;;;;;;13.54;74.25;97002.53;4918326;29;20237;-57
2022/09/19 08:03:31;;;;;;;0.90;0.90;;;;;;;13.45;71.52;97008.75;4918187;29;20251;-59
2022/09/19 08:06:00;;;;;;;3.80;1.30;;;;;;;13.43;73.33;97000.94;4908993;29;20240;-56
2022/09/19 08:08:27;;;;;;;1.70;1.00;;;;;;;13.44;71.50;97007.94;4908167;29;20231;-56
2022/09/19 08:11:01;;;;;;;1.87;0.80;;;;;;;13.26;72.07;97008.91;4907744;29;20299;-55
2022/09/19 08:13:29;;;;;;;2.13;1.00;;;;;;;13.43;71.85;97010.72;4912343;29;20240;-55
2022/09/19 08:15:55;;;;;;;0.83;0.83;;;;;;;13.43;72.64;97011.56;4911542;29;20240;-55
2022/09/19 08:18:23;;;;;;;3.47;1.20;;;;;;;13.49;72.71;97025.25;4909001;29;20205;-55
2022/09/19 08:20:50;;;;;;;2.23;0.80;;;;;;;13.75;71.84;97021.66;4909209;29;20208;-54
2022/09/19 08:23:19;;;;;;;1.27;0.67;;;;;;;13.95;71.26;97020.50;4907377;29;20294;-55
2022/09/19 08:25:47;;;;;;;2.53;1.00;;;;;;;14.14;68.81;97031.91;4910372;29;20211;-55
2022/09/19 08:28:14;;;;;;;0.63;0.63;;;;;;;14.32;70.04;97024.72;4907596;29;20227;-56
2022/09/19 08:30:43;;;;;;;0.77;0.70;;;;;;;14.52;69.58;97018.25;4908000;29;20223;-55
2022/09/19 08:33:10;;;;;;;2.10;1.00;;;;;;;14.65;68.47;97023.13;4907401;29;20208;-56
2022/09/19 08:35:39;;;;;;;1.30;1.13;;;;;;;14.77;68.24;97022.66;4906755;29;20214;-53
2022/09/19 08:38:08;;;;;;;2.70;1.00;;;;;;;14.69;67.69;97027.13;4906730;29;20552;-55
2022/09/19 08:40:48;;;;;;;1.33;1.17;;;;;;;14.59;68.91;97027.25;4906580;29;20299;-56
2022/09/19 08:43:18;;;;;;;2.23;1.17;;;;;;;14.65;67.80;97026.63;4906095;29;20744;-54
2022/09/19 08:46:04;;;;;;;5.00;1.30;;;;;;;14.26;69.39;97033.34;4906645;29;20296;-55
2022/09/19 08:48:49;;;;;;;3.77;1.10;;;;;;;14.26;69.87;97030.69;4906444;29;20319;-56
2022/09/19 08:51:20;;;;;;;1.20;1.07;;;;;;;14.24;69.36;97040.66;4906586;29;20208;-56
2022/09/19 08:53:50;;;;;;;3.73;1.67;;;;;;;14.15;71.28;97034.44;4906524;29;20782;-55
2022/09/19 08:56:19;;;;;;;0.93;0.90;;;;;;;14.25;68.61;97035.16;4906093;29;20217;-56
2022/09/19 08:58:49;;;;;;;2.13;0.90;;;;;;;14.15;70.17;97036.25;4906020;29;20205;-54
2022/09/19 09:01:17;;;;;;;2.33;1.17;;;;;;;13.98;69.95;97034.47;4905270;29;20618;-56
2022/09/19 09:03:51;;;;;;;1.20;1.00;;;;;;;13.95;69.58;97036.47;4905971;29;20675;-55
2022/09/19 09:06:26;;;;;;;1.50;1.00;;;;;;;13.88;71.58;97038.06;4906137;29;20207;-56
2022/09/19 09:08:58;;;;;;;2.67;1.40;;;;;;;13.93;71.61;97034.91;4905593;29;20219;-55
2022/09/19 09:11:34;;;;;;;2.73;0.90;;;;;;;13.99;73.84;97041.47;4905844;29;20204;-56
2022/09/19 09:14:07;;;;;;;1.80;1.00;;;;;;;13.94;70.68;97036.59;4906375;29;20595;-55
2022/09/19 09:16:48;;;;;;;1.60;0.90;;;;;;;13.90;70.21;97041.38;4906070;29;20213;-56
2022/09/19 09:19:34;;;;;;;1.57;0.90;;;;;;;13.88;69.21;97042.53;4905789;29;20291;-56
2022/09/19 09:22:07;;;;;;;1.90;0.83;;;;;;;13.93;71.22;97030.44;4905111;29;20228;-55
2022/09/19 09:24:37;;;;;;;1.33;0.93;;;;;;;14.04;68.63;97034.69;4905743;29;20243;-56
2022/09/19 09:27:13;;;;;;;1.87;1.00;;;;;;;14.15;69.51;97029.09;4905676;29;20210;-55
2022/09/19 09:29:42;;;;;;;1.20;0.90;;;;;;;14.31;69.27;97033.72;4905876;29;20760;-56
2022/09/19 09:32:15;;;;;;;3.47;1.00;;;;;;;14.81;65.56;97029.34;4905970;29;20244;-55
2022/09/19 09:34:46;;;;;;;2.43;1.07;;;;;;;15.41;65.48;97029.19;4906374;29;20272;-55
2022/09/19 09:37:20;;;;;;;1.23;0.83;;;;;;;15.59;64.05;97029.94;4905618;29;20654;-55
2022/09/19 09:39:59;;;;;;;1.47;0.80;;;;;;;15.66;62.15;97028.28;4905918;29;20197;-57
2022/09/19 09:42:32;;;;;;;1.20;0.83;;;;;;;15.57;61.41;97023.94;4906045;29;20216;-54
2022/09/19 09:45:02;;;;;;;1.50;1.00;;;;;;;15.41;62.28;97027.38;4905327;29;20248;-55
2022/09/19 09:47:43;;;;;;;1.73;1.07;;;;;;;15.43;61.43;97021.88;4905858;29;20327;-55
2022/09/19 09:50:25;;;;;;;1.90;1.07;;;;;;;15.45;62.74;97022.53;4905849;29;20290;-54
2022/09/19 09:52:59;;;;;;;2.30;1.07;;;;;;;15.49;62.11;97023.91;4905470;29;20212;-57
2022/09/19 09:58:35;;;;;;;0.60;0.60;;;;;;;15.35;60.83;97024.53;4905734;29;20251;-55
2022/09/19 10:04:14;;;;;;;0.93;0.60;;;;;;;15.58;60.95;97019.44;4905495;29;20219;-55
2022/09/19 10:06:45;;;;;;;0.70;0.70;;;;;;;15.31;60.67;97017.84;4905689;29;20291;-54
2022/09/19 10:09:14;;;;;;;0.50;0.50;;;;;;;15.67;63.11;97016.63;4905495;29;20234;-56
2022/09/19 10:11:45;;;;;;;2.25;1.00;;;;;;;15.66;61.44;97014.94;4905189;29;20737;-55
2022/09/19 10:14:19;;;;;;;0.97;0.60;;;;;;;15.59;58.58;97021.94;4907692;29;20275;-55
2022/09/19 10:16:47;;;;;;;0.95;0.70;;;;;;;15.77;60.74;97014.63;4909187;29;20276;-56
2022/09/19 10:19:27;;;;;;;2.42;0.60;;;;;;;15.63;61.32;97011.78;4909119;29;20618;-55
2022/09/19 10:21:54;;;;;;;1.17;0.75;;;;;;;15.78;61.71;97007.47;4909243;29;20220;-56
2022/09/19 10:24:43;;;;;;;1.60;0.80;;;;;;;15.92;60.33;97015.63;4909069;29;20237;-56
2022/09/19 10:27:13;;;;;;;0.80;0.60;;;;;;;16.08;58.61;97005.97;4908870;29;20212;-55
2022/09/19 10:29:53;;;;;;;2.47;0.95;;;;;;;16.24;57.47;97000.59;4908987;29;20297;-56
2022/09/19 10:32:24;;;;;;;0.82;0.77;;;;;;;16.56;55.86;97007.72;4908595;29;20598;-56
2022/09/19 10:34:51;;;;;;;1.42;0.70;;;;;;;16.96;55.45;97012.94;4908694;29;20287;-56
2022/09/19 10:37:20;;;;;;;0.80;0.57;;;;;;;17.11;56.44;97013.03;4908719;29;20296;-56
2022/09/19 10:39:48;;;;;;;1.45;0.80;;;;;;;17.24;54.22;97005.28;4908388;29;20649;-55
2022/09/19 10:42:30;;;;;;;0.95;0.60;;;;;;;17.83;55.39;97001.91;4909363;29;20200;-56
2022/09/19 10:44:58;;;;;;;1.80;0.85;;;;;;;18.21;54.00;97001.91;4909314;29;20244;-55
2022/09/19 10:47:27;;;;;;;1.23;0.70;;;;;;;18.25;52.69;97005.88;4908647;29;20212;-56
2022/09/19 10:50:00;;;;;;;1.15;0.85;;;;;;;18.56;52.61;96997.75;4908678;29;20306;-56
2022/09/19 10:52:30;;;;;;;2.08;0.95;;;;;;;17.92;47.87;96997.31;4908387;29;20235;-55
2022/09/19 10:54:58;;;;;;;1.13;0.57;;;;;;;17.71;47.86;96992.63;4908691;29;20216;-55
2022/09/19 10:57:40;;;;;;;2.33;0.60;;;;;;;17.79;47.31;96997.06;4908863;29;20307;-54
2022/09/19 11:00:21;;;;;;;0.98;0.70;;;;;;;17.57;50.40;97001.41;4908542;29;20263;-56
2022/09/19 11:02:55;;;;;;;1.30;0.77;;;;;;;17.02;52.50;96995.38;4908922;29;20283;-54
2022/09/19 11:05:25;;;;;;;0.95;0.68;;;;;;;16.79;54.82;96985.44;4908957;29;20234;-55
2022/09/19 11:07:56;;;;;;;1.58;1.20;;;;;;;16.41;54.93;96991.53;4908204;29;20220;-56
2022/09/19 11:10:38;;;;;;;0.60;0.60;;;;;;;16.04;58.36;96993.97;4908285;29;20204;-55
2022/09/19 11:13:07;;;;;;;0.85;0.80;;;;;;;15.96;59.18;96997.47;4908094;29;20642;-55
2022/09/19 11:15:37;;;;;;;1.05;0.68;;;;;;;15.98;53.01;97000.78;4908299;29;20203;-55
2022/09/19 11:18:11;;;;;;;1.20;0.77;;;;;;;15.88;56.76;97000.13;4908612;29;20311;-55
2022/09/19 11:20:49;;;;;;;1.83;0.77;;;;;;;15.87;61.34;96993.94;4908312;29;20286;-56
2022/09/19 11:23:38;;;;;;;2.78;1.10;;;;;;;15.75;58.33;96997.97;4908416;29;20324;-56
2022/09/19 11:26:14;;;;;;;4.07;0.75;;;;;;;15.52;53.37;96998.78;4893602;29;20299;-57
2022/09/19 11:28:50;;;;;;;1.15;0.63;;;;;;;15.87;56.42;96995.81;4908750;29;20307;-56
2022/09/19 11:31:28;;;;;;;0.50;0.50;;;;;;;16.53;54.21;96992.84;4917990;29;20208;-55
2022/09/19 11:33:58;;;;;;;6.60;1.10;;;;;;;17.05;55.00;96993.19;4927669;29;20413;-54
2022/09/19 11:36:33;;;;;;;1.42;1.13;;;;;;;17.54;53.58;96992.88;4915990;29;20208;-56
2022/09/19 11:39:06;;;;;;;0.85;0.40;;;;;;;18.04;51.53;96992.34;4908125;29;20208;-55
2022/09/19 11:41:37;;;;;;;1.05;0.50;;;;;;;18.31;50.45;96999.81;4922176;29;20226;-55
2022/09/19 11:44:16;;;;;;;0.60;0.60;;;;;;;18.50;47.93;96993.91;4925189;29;20255;-57
2022/09/19 11:46:49;;;;;;;2.38;0.63;;;;;;;18.91;44.89;96985.44;4915720;29;20258;-57
2022/09/19 11:49:52;;;;;;;1.55;0.68;;;;;;;19.24;48.53;96992.03;4907307;29;20314;-55
2022/09/19 11:52:25;;;;;;;0.55;0.50;;;;;;;19.51;47.46;96979.78;4839810;29;20301;-55
2022/09/19 11:55:02;;;;;;;1.30;1.00;;;;;;;19.76;43.52;96978.41;4897725;29;20207;-55
2022/09/19 11:57:39;;;;;;;1.27;0.77;;;;;;;19.91;43.34;96967.59;4907498;29;20227;-54
2022/09/19 12:00:13;;;;;;;1.40;0.63;;;;;;;19.71;43.07;96973.59;4907187;29;20260;-57
2022/09/19 12:02:53;;;;;;;0.98;0.40;;;;;;;19.68;43.69;96967.78;4907176;29;20216;-56